createdAt,value
2018-01-25T00:00:19.199Z,6.30
2018-01-25T00:02:46.736Z,6.50
2018-01-25T00:05:14.276Z,6.50
2018-01-25T00:07:41.819Z,6.40
2018-01-25T00:10:09.357Z,6.50
2018-01-25T00:12:36.918Z,6.70
2018-01-25T00:15:04.449Z,6.60
2018-01-25T00:17:31.988Z,6.50
2018-01-25T00:19:59.536Z,6.50
2018-01-25T00:22:31.816Z,6.60
2018-01-25T00:24:59.369Z,6.60
2018-01-25T00:27:26.894Z,6.60
2018-01-25T00:29:54.406Z,6.50
2018-01-25T00:32:21.984Z,6.40
2018-01-25T00:34:50.187Z,6.40
2018-01-25T00:37:18.637Z,6.40
2018-01-25T00:39:46.160Z,6.40
2018-01-25T00:42:14.498Z,6.50
2018-01-25T00:44:42.807Z,6.50
2018-01-25T00:47:10.346Z,6.50
2018-01-25T00:49:37.916Z,6.60
2018-01-25T00:52:05.602Z,6.60
2018-01-25T00:54:33.883Z,6.60
2018-01-25T00:57:01.494Z,6.60
2018-01-25T00:59:29.032Z,6.60
2018-01-25T01:01:56.594Z,6.50
2018-01-25T01:04:24.128Z,6.60
2018-01-25T01:06:52.473Z,6.60
2018-01-25T01:09:20.270Z,6.70
2018-01-25T01:11:48.585Z,6.70
2018-01-25T01:14:16.101Z,6.70
2018-01-25T01:16:43.639Z,6.70
2018-01-25T01:19:11.225Z,6.70
2018-01-25T01:21:39.566Z,6.80
2018-01-25T01:24:07.099Z,6.80
2018-01-25T01:26:34.620Z,6.90
2018-01-25T01:29:02.199Z,6.90
2018-01-25T01:31:30.557Z,7.00
2018-01-25T01:33:59.005Z,7.00
2018-01-25T01:36:27.352Z,7.00
2018-01-25T01:38:55.057Z,7.00
2018-01-25T01:41:22.616Z,7.00
2018-01-25T01:43:50.603Z,7.00
2018-01-25T01:46:18.906Z,6.90
2018-01-25T01:48:46.432Z,6.90
2018-01-25T01:51:14.904Z,7.00
2018-01-25T01:53:42.443Z,7.00
2018-01-25T01:56:09.986Z,7.00
2018-01-25T01:58:39.025Z,6.90
2018-01-25T02:01:07.334Z,6.90
2018-01-25T02:03:35.660Z,6.70
2018-01-25T02:06:03.175Z,6.90
2018-01-25T02:08:30.702Z,7.00
2018-01-25T02:10:58.219Z,6.90
2018-01-25T02:13:25.949Z,6.90
2018-01-25T02:15:53.542Z,6.80
2018-01-25T02:18:21.195Z,6.90
2018-01-25T02:20:50.226Z,6.90
2018-01-25T02:23:17.758Z,6.90
2018-01-25T02:25:45.308Z,6.90
2018-01-25T02:28:12.984Z,6.90
2018-01-25T02:30:41.293Z,6.90
2018-01-25T02:33:08.858Z,6.80
2018-01-25T02:35:37.164Z,6.80
2018-01-25T02:38:04.713Z,6.80
2018-01-25T02:40:32.257Z,6.80
2018-01-25T02:42:59.784Z,6.80
2018-01-25T02:45:28.101Z,6.90
2018-01-25T02:47:56.639Z,6.90
2018-01-25T02:50:25.335Z,6.90
2018-01-25T02:52:52.849Z,6.80
2018-01-25T02:55:21.225Z,6.80
2018-01-25T02:57:48.854Z,6.80
2018-01-25T03:00:17.334Z,6.80
2018-01-25T03:02:44.865Z,6.80
2018-01-25T03:05:12.426Z,6.80
2018-01-25T03:07:39.961Z,6.80
2018-01-25T03:10:07.513Z,6.70
2018-01-25T03:12:35.061Z,6.70
2018-01-25T03:15:02.602Z,6.80
2018-01-25T03:17:30.174Z,6.70
2018-01-25T03:19:58.464Z,6.60
2018-01-25T03:22:26.163Z,6.60
2018-01-25T03:24:53.701Z,6.60
2018-01-25T03:27:21.225Z,6.70
2018-01-25T03:29:50.059Z,6.70
2018-01-25T03:32:17.579Z,6.70
2018-01-25T03:34:45.090Z,6.70
2018-01-25T03:37:12.677Z,6.80
2018-01-25T03:39:40.204Z,6.90
2018-01-25T03:42:07.788Z,6.80
2018-01-25T03:44:36.080Z,6.90
2018-01-25T03:47:03.604Z,6.90
2018-01-25T03:49:31.244Z,6.90
2018-01-25T03:51:58.784Z,7.00
2018-01-25T03:54:26.542Z,7.00
2018-01-25T03:56:54.092Z,7.00
2018-01-25T03:59:21.624Z,7.00
2018-01-25T04:01:49.397Z,7.10
2018-01-25T04:04:16.965Z,7.00
2018-01-25T04:06:44.559Z,7.10
2018-01-25T04:09:12.915Z,7.20
2018-01-25T04:11:40.460Z,7.20
2018-01-25T04:14:08.800Z,7.20
2018-01-25T04:16:36.369Z,7.00
2018-01-25T04:19:04.697Z,7.40
2018-01-25T04:21:32.229Z,7.40
2018-01-25T04:23:59.826Z,7.40
2018-01-25T04:26:28.129Z,7.30
2018-01-25T04:28:55.684Z,7.30
2018-01-25T04:31:23.978Z,7.30
2018-01-25T04:33:51.558Z,7.30
2018-01-25T04:36:20.113Z,7.50
2018-01-25T04:38:48.381Z,7.30
2018-01-25T04:41:16.740Z,7.30
2018-01-25T04:43:45.076Z,7.30
2018-01-25T04:46:13.433Z,7.40
2018-01-25T04:48:41.743Z,7.30
2018-01-25T04:51:09.263Z,7.30
2018-01-25T04:53:36.821Z,7.40
2018-01-25T04:56:04.423Z,7.30
2018-01-25T04:58:32.843Z,7.30
2018-01-25T05:01:00.382Z,7.30
2018-01-25T05:03:27.955Z,7.30
2018-01-25T05:05:56.694Z,7.30
2018-01-25T05:08:24.286Z,7.30
2018-01-25T05:10:51.826Z,7.30
2018-01-25T05:13:19.375Z,7.20
2018-01-25T05:15:46.948Z,7.30
2018-01-25T05:18:14.531Z,7.30
2018-01-25T05:20:42.071Z,7.40
2018-01-25T05:23:10.382Z,7.40
2018-01-25T05:25:37.944Z,7.40
2018-01-25T05:28:06.243Z,7.50
2018-01-25T05:30:33.753Z,7.50
2018-01-25T05:33:02.084Z,7.60
2018-01-25T05:35:30.385Z,7.60
2018-01-25T05:37:58.148Z,7.60
2018-01-25T05:40:26.606Z,7.60
2018-01-25T05:42:54.147Z,7.60
2018-01-25T05:45:21.691Z,7.50
2018-01-25T05:47:49.341Z,7.40
2018-01-25T05:50:16.882Z,7.30
2018-01-25T05:52:44.415Z,7.40
2018-01-25T05:55:12.008Z,7.40
2018-01-25T05:57:39.523Z,7.30
2018-01-25T06:00:07.093Z,7.30
2018-01-25T06:02:35.506Z,7.10
2018-01-25T06:05:03.113Z,7.10
2018-01-25T06:07:31.416Z,6.90
2018-01-25T06:09:59.720Z,6.90
2018-01-25T06:12:27.244Z,6.90
2018-01-25T06:15:09.032Z,6.90
2018-01-25T06:17:36.604Z,6.90
2018-01-25T06:20:05.829Z,6.70
2018-01-25T06:22:34.459Z,6.70
2018-01-25T06:25:02.203Z,6.70
2018-01-25T06:27:29.736Z,6.70
2018-01-25T06:29:57.345Z,6.70
2018-01-25T06:32:24.841Z,6.70
2018-01-25T06:34:53.165Z,6.50
2018-01-25T06:37:21.474Z,6.60
2018-01-25T06:39:49.002Z,6.60
2018-01-25T06:42:16.729Z,6.70
2018-01-25T06:44:44.305Z,6.50
2018-01-25T06:47:11.943Z,6.60
2018-01-25T06:49:39.518Z,6.60
2018-01-25T06:52:07.892Z,6.60
2018-01-25T06:54:35.633Z,6.60
2018-01-25T06:57:03.259Z,6.60
2018-01-25T06:59:31.071Z,6.60
2018-01-25T07:01:59.079Z,6.50
2018-01-25T07:04:27.462Z,6.60
2018-01-25T07:06:55.015Z,6.60
2018-01-25T07:09:23.412Z,6.60
2018-01-25T07:11:50.988Z,6.60
2018-01-25T07:14:18.575Z,6.70
2018-01-25T07:16:46.116Z,6.60
2018-01-25T07:19:14.478Z,6.70
2018-01-25T07:21:42.072Z,6.70
2018-01-25T07:24:09.610Z,6.70
2018-01-25T07:26:37.918Z,6.90
2018-01-25T07:29:05.792Z,6.80
2018-01-25T07:31:33.529Z,6.90
2018-01-25T07:34:01.113Z,7.00
2018-01-25T07:36:28.711Z,7.10
2018-01-25T07:38:56.234Z,7.10
2018-01-25T07:41:23.759Z,7.10
2018-01-25T07:43:51.338Z,7.20
2018-01-25T07:46:18.888Z,7.30
2018-01-25T07:48:47.315Z,7.80
2018-01-25T07:51:26.659Z,7.80
2018-01-25T07:53:54.304Z,8.10
2018-01-25T07:56:21.843Z,8.10
2018-01-25T07:58:49.401Z,8.30
2018-01-25T08:01:16.948Z,8.40
2018-01-25T08:03:44.495Z,8.60
2018-01-25T08:06:12.089Z,8.70
2018-01-25T08:08:40.407Z,8.80
2018-01-25T08:11:07.937Z,8.60
2018-01-25T08:13:39.107Z,8.90
2018-01-25T08:16:12.320Z,8.90
2018-01-25T08:18:39.888Z,9.20
2018-01-25T08:21:07.433Z,9.50
2018-01-25T08:23:35.268Z,9.60
2018-01-25T08:26:02.996Z,9.60
2018-01-25T08:28:30.508Z,9.70
2018-01-25T08:30:58.047Z,9.90
2018-01-25T08:33:25.591Z,9.90
2018-01-25T08:35:53.105Z,9.80
2018-01-25T08:38:20.630Z,9.90
2018-01-25T08:40:48.218Z,10.10
2018-01-25T08:43:15.897Z,10.30
2018-01-25T08:45:43.463Z,10.40
2018-01-25T08:48:11.059Z,10.60
2018-01-25T08:50:38.615Z,11.00
2018-01-25T08:53:06.663Z,11.20
2018-01-25T08:55:35.686Z,11.50
2018-01-25T08:58:03.418Z,11.40
2018-01-25T09:00:30.974Z,11.50
2018-01-25T09:02:58.655Z,11.40
2018-01-25T09:05:26.262Z,11.50
2018-01-25T09:07:54.580Z,11.90
2018-01-25T09:10:22.167Z,11.90
2018-01-25T09:12:49.743Z,12.20
2018-01-25T09:15:17.282Z,12.30
2018-01-25T09:17:45.656Z,12.50
2018-01-25T09:20:13.292Z,12.50
2018-01-25T09:22:40.837Z,12.50
2018-01-25T09:25:08.745Z,12.50
2018-01-25T09:27:36.346Z,12.60
2018-01-25T09:30:03.935Z,12.50
2018-01-25T09:32:32.404Z,12.80
2018-01-25T09:35:00.720Z,12.90
2018-01-25T09:37:28.261Z,12.90
2018-01-25T09:39:55.855Z,13.00
2018-01-25T09:42:23.389Z,13.10
2018-01-25T09:44:51.284Z,13.40
2018-01-25T09:47:18.841Z,13.80
2018-01-25T09:49:46.722Z,14.30
2018-01-25T09:52:15.123Z,14.50
2018-01-25T09:54:42.685Z,14.50
2018-01-25T09:57:10.461Z,14.80
2018-01-25T09:59:38.014Z,14.90
2018-01-25T10:02:05.739Z,15.10
2018-01-25T10:04:33.304Z,15.20
2018-01-25T10:07:00.841Z,15.10
2018-01-25T10:09:28.512Z,15.60
2018-01-25T10:11:56.201Z,16.00
2018-01-25T10:14:23.736Z,16.30
2018-01-25T10:16:51.792Z,16.50
2018-01-25T10:19:19.346Z,16.80
2018-01-25T10:21:46.931Z,16.90
2018-01-25T10:24:14.505Z,17.20
2018-01-25T10:26:42.807Z,17.80
2018-01-25T10:29:10.368Z,17.70
2018-01-25T10:31:37.922Z,17.60
2018-01-25T10:34:05.464Z,17.80
2018-01-25T10:36:33.754Z,17.70
2018-01-25T10:39:01.539Z,17.60
2018-01-25T10:41:29.142Z,17.20
2018-01-25T10:43:57.469Z,16.90
2018-01-25T10:46:26.000Z,16.90
2018-01-25T10:48:53.604Z,16.90
2018-01-25T10:51:21.145Z,17.10
2018-01-25T10:53:48.729Z,17.10
2018-01-25T10:56:16.382Z,17.40
2018-01-25T10:58:43.934Z,17.80
2018-01-25T11:01:17.209Z,18.20
2018-01-25T11:03:44.727Z,18.30
2018-01-25T11:06:12.346Z,18.40
2018-01-25T11:08:39.940Z,18.50
2018-01-25T11:11:08.098Z,18.70
2018-01-25T11:13:35.645Z,18.60
2018-01-25T11:16:03.448Z,18.50
2018-01-25T11:18:30.991Z,18.70
2018-01-25T11:20:58.517Z,18.80
2018-01-25T11:23:26.094Z,19.00
2018-01-25T11:25:54.503Z,19.40
2018-01-25T11:28:22.181Z,19.30
2018-01-25T11:30:50.505Z,19.70
2018-01-25T11:33:18.805Z,19.70
2018-01-25T11:35:46.490Z,19.60
2018-01-25T11:38:14.825Z,19.00
2018-01-25T11:40:43.116Z,18.70
2018-01-25T11:43:10.634Z,18.70
2018-01-25T11:45:39.175Z,18.40
2018-01-25T11:48:06.748Z,18.00
2018-01-25T11:50:34.295Z,17.80
2018-01-25T11:53:02.174Z,17.70
2018-01-25T11:55:29.712Z,17.40
2018-01-25T11:57:57.277Z,17.40
2018-01-25T12:00:25.576Z,17.20
2018-01-25T12:02:53.201Z,17.10
2018-01-25T12:05:20.757Z,17.30
2018-01-25T12:07:48.353Z,17.00
2018-01-25T12:10:16.002Z,16.80
2018-01-25T12:12:43.564Z,16.60
2018-01-25T12:15:11.874Z,16.80
2018-01-25T12:17:40.365Z,16.70
2018-01-25T12:20:08.530Z,16.60
2018-01-25T12:22:36.182Z,16.40
2018-01-25T12:25:04.571Z,16.40
2018-01-25T12:27:32.386Z,16.40
2018-01-25T12:29:59.926Z,16.50
2018-01-25T12:32:28.233Z,16.40
2018-01-25T12:34:55.824Z,16.60
2018-01-25T12:37:23.370Z,16.70
2018-01-25T12:39:50.914Z,16.80
2018-01-25T12:42:18.622Z,16.80
2018-01-25T12:44:46.157Z,16.80
2018-01-25T12:47:13.772Z,16.90
2018-01-25T12:49:41.309Z,16.80
2018-01-25T12:52:09.004Z,16.80
2018-01-25T12:54:36.649Z,16.70
2018-01-25T12:57:04.237Z,16.70
2018-01-25T12:59:31.838Z,16.60
2018-01-25T13:01:59.430Z,16.70
2018-01-25T13:04:26.990Z,16.80
2018-01-25T13:06:54.529Z,16.70
2018-01-25T13:09:22.086Z,16.80
2018-01-25T13:11:53.955Z,16.70
2018-01-25T13:14:21.575Z,16.70
2018-01-25T13:16:49.141Z,16.60
2018-01-25T13:19:17.590Z,16.40
2018-01-25T13:21:45.117Z,16.40
2018-01-25T13:24:13.478Z,16.30
2018-01-25T13:26:41.973Z,16.30
2018-01-25T13:29:09.564Z,16.20
2018-01-25T13:31:37.155Z,16.30
2018-01-25T13:34:04.732Z,16.20
2018-01-25T13:36:33.118Z,16.00
2018-01-25T13:39:00.846Z,15.90
2018-01-25T13:41:28.417Z,15.80
2018-01-25T13:43:56.570Z,15.90
2018-01-25T13:46:24.122Z,15.60
2018-01-25T13:48:52.425Z,15.60
2018-01-25T13:51:19.965Z,15.60
2018-01-25T13:53:47.515Z,15.60
2018-01-25T13:56:15.082Z,15.50
2018-01-25T13:58:42.618Z,15.40
2018-01-25T14:01:10.258Z,15.40
2018-01-25T14:03:37.806Z,15.40
2018-01-25T14:06:05.718Z,15.40
2018-01-25T14:08:33.480Z,15.40
2018-01-25T14:11:01.005Z,15.40
2018-01-25T14:13:28.576Z,15.40
2018-01-25T14:15:56.273Z,15.40
2018-01-25T14:18:23.843Z,15.40
2018-01-25T14:20:51.403Z,15.20
2018-01-25T14:23:19.688Z,15.20
2018-01-25T14:25:47.242Z,15.10
2018-01-25T14:28:14.794Z,15.20
2018-01-25T14:30:43.250Z,15.20
2018-01-25T14:33:12.299Z,15.10
2018-01-25T14:35:41.602Z,15.00
2018-01-25T14:38:09.138Z,15.00
2018-01-25T14:40:36.748Z,14.90
2018-01-25T14:43:05.038Z,14.90
2018-01-25T14:45:32.583Z,14.90
2018-01-25T14:48:00.097Z,14.80
2018-01-25T14:50:27.845Z,14.90
2018-01-25T14:52:55.398Z,14.80
2018-01-25T14:55:23.681Z,14.80
2018-01-25T14:57:51.386Z,14.80
2018-01-25T15:00:18.957Z,14.70
2018-01-25T15:02:46.530Z,14.40
2018-01-25T15:05:14.136Z,14.40
2018-01-25T15:07:42.605Z,14.30
2018-01-25T15:10:11.488Z,14.20
2018-01-25T15:12:39.035Z,14.20
2018-01-25T15:15:06.597Z,14.20
2018-01-25T15:17:34.256Z,14.10
2018-01-25T15:20:01.787Z,14.10
2018-01-25T15:22:29.366Z,14.10
2018-01-25T15:25:02.601Z,14.10
2018-01-25T15:27:33.946Z,14.10
2018-01-25T15:30:01.668Z,14.10
2018-01-25T15:32:29.220Z,14.10
2018-01-25T15:34:58.109Z,13.90
2018-01-25T15:37:25.752Z,13.90
2018-01-25T15:39:53.456Z,13.90
2018-01-25T15:42:21.059Z,13.80
2018-01-25T15:44:48.698Z,13.80
2018-01-25T15:47:16.399Z,13.70
2018-01-25T15:49:43.956Z,13.70
2018-01-25T15:52:11.500Z,13.60
2018-01-25T15:54:39.049Z,13.60
2018-01-25T15:57:07.073Z,13.50
2018-01-25T15:59:34.671Z,13.50
2018-01-25T16:02:02.244Z,13.50
2018-01-25T16:04:30.572Z,13.30
2018-01-25T16:06:58.146Z,13.20
2018-01-25T16:09:25.675Z,13.10
2018-01-25T16:11:53.276Z,13.10
2018-01-25T16:14:20.823Z,13.00
2018-01-25T16:16:48.373Z,12.90
2018-01-25T16:19:15.944Z,12.90
2018-01-25T16:21:43.566Z,12.90
2018-01-25T16:24:11.955Z,12.90
2018-01-25T16:26:39.531Z,12.90
2018-01-25T16:29:08.706Z,12.80
2018-01-25T16:31:37.013Z,12.70
2018-01-25T16:34:04.562Z,12.70
2018-01-25T16:36:32.879Z,12.70
2018-01-25T16:39:00.418Z,12.70
2018-01-25T16:41:27.964Z,12.70
2018-01-25T16:43:56.343Z,12.60
2018-01-25T16:46:23.875Z,12.60
2018-01-25T16:48:51.421Z,12.60
2018-01-25T16:51:19.011Z,12.50
2018-01-25T16:53:47.295Z,12.40
2018-01-25T16:56:14.840Z,12.40
2018-01-25T16:58:42.448Z,12.40
2018-01-25T17:01:10.089Z,12.30
2018-01-25T17:03:38.180Z,12.30
2018-01-25T17:06:05.913Z,12.20
2018-01-25T17:08:33.503Z,12.20
2018-01-25T17:11:01.792Z,12.20
2018-01-25T17:13:29.339Z,12.30
2018-01-25T17:15:56.879Z,12.00
2018-01-25T17:18:25.204Z,12.00
2018-01-25T17:20:52.755Z,12.00
2018-01-25T17:23:21.051Z,12.00
2018-01-25T17:25:48.583Z,11.90
2018-01-25T17:28:16.216Z,11.90
2018-01-25T17:30:43.794Z,11.90
2018-01-25T17:33:12.137Z,11.80
2018-01-25T17:35:39.757Z,11.80
2018-01-25T17:38:08.029Z,11.70
2018-01-25T17:40:35.558Z,11.70
2018-01-25T17:43:03.300Z,11.70
2018-01-25T17:45:30.868Z,11.60
2018-01-25T17:47:58.438Z,11.70
2018-01-25T17:50:26.035Z,11.50
2018-01-25T17:52:53.601Z,11.40
2018-01-25T17:55:21.128Z,11.40
2018-01-25T17:57:48.798Z,11.40
2018-01-25T18:00:16.611Z,11.30
2018-01-25T18:02:44.181Z,11.20
2018-01-25T18:05:11.741Z,11.10
2018-01-25T18:07:39.256Z,11.10
2018-01-25T18:10:06.776Z,11.10
2018-01-25T18:12:35.093Z,11.00
2018-01-25T18:15:02.654Z,11.00
2018-01-25T18:17:31.180Z,10.90
2018-01-25T18:19:58.754Z,10.90
2018-01-25T18:22:26.291Z,10.90
2018-01-25T18:24:53.844Z,10.90
2018-01-25T18:27:21.401Z,10.90
2018-01-25T18:29:48.926Z,10.80
2018-01-25T18:32:16.563Z,10.80
2018-01-25T18:34:44.965Z,10.80
2018-01-25T18:37:12.458Z,10.80
2018-01-25T18:39:39.990Z,10.80
2018-01-25T18:42:07.820Z,10.70
2018-01-25T18:44:36.125Z,10.70
2018-01-25T18:47:03.673Z,10.70
2018-01-25T18:49:31.250Z,10.60
2018-01-25T18:51:58.953Z,10.70
2018-01-25T18:54:26.504Z,10.60
2018-01-25T18:56:54.101Z,10.50
2018-01-25T18:59:21.658Z,10.40
2018-01-25T19:01:49.212Z,10.40
2018-01-25T19:04:16.858Z,10.40
2018-01-25T19:06:44.391Z,10.40
2018-01-25T19:09:11.917Z,10.30
2018-01-25T19:11:39.499Z,10.40
2018-01-25T19:14:07.080Z,10.30
2018-01-25T19:16:35.425Z,10.30
2018-01-25T19:19:03.014Z,10.20
2018-01-25T19:21:31.507Z,10.20
2018-01-25T19:24:00.197Z,10.00
2018-01-25T19:26:27.784Z,9.80
2018-01-25T19:28:56.198Z,10.00
2018-01-25T19:31:24.682Z,10.00
2018-01-25T19:33:52.303Z,10.00
2018-01-25T19:36:20.633Z,9.90
2018-01-25T19:38:49.027Z,9.90
2018-01-25T19:41:16.754Z,9.90
2018-01-25T19:43:44.328Z,9.90
2018-01-25T19:46:11.906Z,10.00
2018-01-25T19:48:40.221Z,9.90
2018-01-25T19:51:07.817Z,9.90
2018-01-25T19:53:35.357Z,10.00
2018-01-25T19:56:02.891Z,9.90
2018-01-25T19:58:30.614Z,9.90
2018-01-25T20:00:58.172Z,9.90
2018-01-25T20:03:26.525Z,9.90
2018-01-25T20:05:54.804Z,9.90
2018-01-25T20:08:22.419Z,9.90
2018-01-25T20:10:50.720Z,10.00
2018-01-25T20:13:18.329Z,9.90
2018-01-25T20:15:45.947Z,9.80
2018-01-25T20:18:13.509Z,9.80
2018-01-25T20:20:41.020Z,9.80
2018-01-25T20:23:08.572Z,9.80
2018-01-25T20:25:36.279Z,9.80
2018-01-25T20:28:03.884Z,9.80
2018-01-25T20:30:31.409Z,9.70
2018-01-25T20:32:58.969Z,9.70
2018-01-25T20:35:26.517Z,9.70
2018-01-25T20:37:54.929Z,9.70
2018-01-25T20:40:23.300Z,9.70
2018-01-25T20:42:50.976Z,9.60
2018-01-25T20:45:18.526Z,9.60
2018-01-25T20:47:46.048Z,9.60
2018-01-25T20:50:14.578Z,9.40
2018-01-25T20:52:42.166Z,9.50
2018-01-25T20:55:09.773Z,9.50
2018-01-25T20:57:37.310Z,9.50
2018-01-25T21:00:05.686Z,9.30
2018-01-25T21:02:33.398Z,9.30
2018-01-25T21:05:00.997Z,9.40
2018-01-25T21:07:28.641Z,9.30
2018-01-25T21:09:56.297Z,9.30
2018-01-25T21:12:24.605Z,9.10
2018-01-25T21:14:52.386Z,9.10
2018-01-25T21:17:20.681Z,9.20
2018-01-25T21:19:48.263Z,9.20
2018-01-25T21:22:15.831Z,9.30
2018-01-25T21:24:44.154Z,9.30
2018-01-25T21:27:12.508Z,9.30
2018-01-25T21:29:40.873Z,9.30
2018-01-25T21:32:09.145Z,9.20
2018-01-25T21:34:36.802Z,9.20
2018-01-25T21:37:04.456Z,9.10
2018-01-25T21:39:32.270Z,9.20
2018-01-25T21:41:59.800Z,9.00
2018-01-25T21:44:27.360Z,9.00
2018-01-25T21:46:55.666Z,8.80
2018-01-25T21:49:23.227Z,8.80
2018-01-25T21:51:50.969Z,8.70
2018-01-25T21:54:18.544Z,8.60
2018-01-25T21:56:46.087Z,8.50
2018-01-25T21:59:13.653Z,8.30
2018-01-25T22:01:41.202Z,8.30
2018-01-25T22:04:08.733Z,8.20
2018-01-25T22:06:36.472Z,8.20
2018-01-25T22:09:04.788Z,8.20
2018-01-25T22:11:32.320Z,8.10
2018-01-25T22:14:01.361Z,8.20
2018-01-25T22:16:28.912Z,8.20
2018-01-25T22:18:56.483Z,8.20
2018-01-25T22:21:24.045Z,8.20
2018-01-25T22:23:52.345Z,8.10
2018-01-25T22:26:20.664Z,8.10
2018-01-25T22:28:49.006Z,8.00
2018-01-25T22:31:17.497Z,8.10
2018-01-25T22:33:45.023Z,8.00
2018-01-25T22:36:13.319Z,8.10
2018-01-25T22:38:40.885Z,8.00
2018-01-25T22:41:08.482Z,8.10
2018-01-25T22:43:36.018Z,8.00
2018-01-25T22:46:04.368Z,8.00
2018-01-25T22:48:31.922Z,8.00
2018-01-25T22:50:59.465Z,8.10
2018-01-25T22:53:27.755Z,8.10
2018-01-25T22:55:55.330Z,8.00
2018-01-25T22:58:23.627Z,8.10
2018-01-25T23:00:51.176Z,8.10
2018-01-25T23:03:18.721Z,8.10
2018-01-25T23:05:46.242Z,8.20
2018-01-25T23:08:14.722Z,8.20
2018-01-25T23:10:43.232Z,8.20
2018-01-25T23:13:10.814Z,8.30
2018-01-25T23:15:39.105Z,8.20
2018-01-25T23:18:07.530Z,8.20
2018-01-25T23:20:35.806Z,8.30
2018-01-25T23:23:03.436Z,8.30
2018-01-25T23:25:30.971Z,8.30
2018-01-25T23:28:00.026Z,8.30
2018-01-25T23:30:27.564Z,8.30
2018-01-25T23:32:55.132Z,8.20
2018-01-25T23:35:23.467Z,8.10
2018-01-25T23:37:51.069Z,8.10
2018-01-25T23:40:18.591Z,8.10
2018-01-25T23:42:46.925Z,8.10
2018-01-25T23:45:14.465Z,8.10
2018-01-25T23:47:42.016Z,8.10
2018-01-25T23:50:09.552Z,8.10
2018-01-25T23:52:37.882Z,8.00
2018-01-25T23:55:06.187Z,8.00
2018-01-25T23:57:33.912Z,8.00
